Decoded Metar for LFRV (VANNES in FRANCE) (IATA:VNE) | Meteo·Mobile Aviation Weather
aviador You're here:

LFRV Decoded Metar

VANNES in FRANCE
Report Time2019-09-21 09:00:00
UTC Time2019-09-21 09:10:41
Flight Rules vfr VFR
Wind160° at 12 kt
W.Decomp.*RWY 22: 6.2 kt HW 10.3 kt LCW
RWY 08: 1.9 kt HW 11.9 kt RCW
Visibility9999 m
Phenomena:N/A
Clouds:N/A
Expected CloudBase > 2,400 ft AGL from Temp-Dew spread
CeilingNone
Temp22°C (ISA +8)
Dew Point16°C (69% RH)
AAT19.7°C
QNH1009 hPa
Density Alt1,742 ft
Elevation445 ft
Report Wrong Elevation
Raw Report
METAR LFRV 210900Z AUTO 16012KT CAVOK 22/16 Q1009=

Extra information for LFRV:More info

Metar Taf Metar & Taf Last 4 Metars F.Rules Stats Wind Profile Meteogram Temp Stats Airport Information Weather charts Add Link Nearby VenuesMetar ALERT Operation Metar Decoded Social comments